sensor_id;sensor_type;location;lat;lon;timestamp;P1;durP1;ratioP1;P2;durP2;ratioP2
14251;SDS011;7210;51.502;10.722;2022-11-20T00:01:52;18.27;;;13.37;;
14251;SDS011;7210;51.502;10.722;2022-11-20T00:04:20;17.83;;;12.40;;
14251;SDS011;7210;51.502;10.722;2022-11-20T00:06:47;17.60;;;12.30;;
14251;SDS011;7210;51.502;10.722;2022-11-20T00:09:16;17.47;;;11.93;;
14251;SDS011;7210;51.502;10.722;2022-11-20T00:11:43;17.73;;;11.87;;
14251;SDS011;7210;51.502;10.722;2022-11-20T00:14:10;16.93;;;12.10;;
14251;SDS011;7210;51.502;10.722;2022-11-20T00:16:38;17.10;;;12.03;;
14251;SDS011;7210;51.502;10.722;2022-11-20T00:19:16;18.23;;;12.00;;
14251;SDS011;7210;51.502;10.722;2022-11-20T00:21:44;18.50;;;12.70;;
14251;SDS011;7210;51.502;10.722;2022-11-20T00:27:00;16.63;;;12.73;;
14251;SDS011;7210;51.502;10.722;2022-11-20T00:29:46;18.10;;;12.50;;
14251;SDS011;7210;51.502;10.722;2022-11-20T00:32:22;20.97;;;13.03;;
14251;SDS011;7210;51.502;10.722;2022-11-20T00:34:49;21.13;;;11.63;;
14251;SDS011;7210;51.502;10.722;2022-11-20T00:37:18;17.77;;;11.80;;
14251;SDS011;7210;51.502;10.722;2022-11-20T00:42:40;22.30;;;11.50;;
14251;SDS011;7210;51.502;10.722;2022-11-20T00:45:07;17.27;;;11.67;;
14251;SDS011;7210;51.502;10.722;2022-11-20T00:47:35;17.43;;;11.97;;
14251;SDS011;7210;51.502;10.722;2022-11-20T00:50:02;16.83;;;11.70;;
14251;SDS011;7210;51.502;10.722;2022-11-20T00:52:32;19.97;;;11.70;;
14251;SDS011;7210;51.502;10.722;2022-11-20T00:55:10;16.63;;;10.90;;
14251;SDS011;7210;51.502;10.722;2022-11-20T00:57:40;17.97;;;11.50;;
14251;SDS011;7210;51.502;10.722;2022-11-20T01:00:07;16.63;;;11.30;;
14251;SDS011;7210;51.502;10.722;2022-11-20T01:02:35;18.67;;;11.87;;
14251;SDS011;7210;51.502;10.722;2022-11-20T01:05:03;17.00;;;11.83;;
14251;SDS011;7210;51.502;10.722;2022-11-20T01:07:33;19.60;;;12.37;;
14251;SDS011;7210;51.502;10.722;2022-11-20T01:10:00;17.30;;;12.07;;
14251;SDS011;7210;51.502;10.722;2022-11-20T01:12:28;17.80;;;11.50;;
14251;SDS011;7210;51.502;10.722;2022-11-20T01:14:58;17.17;;;12.03;;
14251;SDS011;7210;51.502;10.722;2022-11-20T01:17:25;15.23;;;11.30;;
14251;SDS011;7210;51.502;10.722;2022-11-20T01:19:52;16.07;;;11.43;;
14251;SDS011;7210;51.502;10.722;2022-11-20T01:22:28;15.53;;;10.73;;
14251;SDS011;7210;51.502;10.722;2022-11-20T01:25:05;16.80;;;11.67;;
14251;SDS011;7210;51.502;10.722;2022-11-20T01:27:33;20.80;;;11.57;;
14251;SDS011;7210;51.502;10.722;2022-11-20T01:30:01;15.67;;;11.00;;
14251;SDS011;7210;51.502;10.722;2022-11-20T01:32:34;17.23;;;11.40;;
14251;SDS011;7210;51.502;10.722;2022-11-20T01:35:04;16.50;;;10.70;;
14251;SDS011;7210;51.502;10.722;2022-11-20T01:37:34;20.17;;;11.90;;
14251;SDS011;7210;51.502;10.722;2022-11-20T01:40:01;17.13;;;11.97;;
14251;SDS011;7210;51.502;10.722;2022-11-20T01:42:35;17.87;;;11.60;;
14251;SDS011;7210;51.502;10.722;2022-11-20T01:45:45;15.33;;;10.53;;
14251;SDS011;7210;51.502;10.722;2022-11-20T01:51:47;17.03;;;11.67;;
14251;SDS011;7210;51.502;10.722;2022-11-20T01:54:28;17.30;;;11.00;;
14251;SDS011;7210;51.502;10.722;2022-11-20T01:57:01;17.47;;;11.77;;
14251;SDS011;7210;51.502;10.722;2022-11-20T01:59:42;18.87;;;12.37;;
14251;SDS011;7210;51.502;10.722;2022-11-20T02:02:18;18.43;;;11.37;;
14251;SDS011;7210;51.502;10.722;2022-11-20T02:05:05;15.17;;;10.50;;
14251;SDS011;7210;51.502;10.722;2022-11-20T02:07:43;15.93;;;10.23;;
14251;SDS011;7210;51.502;10.722;2022-11-20T02:10:14;19.43;;;11.10;;
14251;SDS011;7210;51.502;10.722;2022-11-20T02:12:42;16.67;;;11.13;;
14251;SDS011;7210;51.502;10.722;2022-11-20T02:15:29;16.43;;;9.83;;
14251;SDS011;7210;51.502;10.722;2022-11-20T02:17:58;16.73;;;11.17;;
14251;SDS011;7210;51.502;10.722;2022-11-20T02:20:26;15.73;;;10.57;;
14251;SDS011;7210;51.502;10.722;2022-11-20T02:25:54;16.87;;;10.87;;
14251;SDS011;7210;51.502;10.722;2022-11-20T02:28:25;16.60;;;10.73;;
14251;SDS011;7210;51.502;10.722;2022-11-20T02:31:10;14.40;;;9.80;;
14251;SDS011;7210;51.502;10.722;2022-11-20T02:33:38;13.27;;;9.23;;
14251;SDS011;7210;51.502;10.722;2022-11-20T02:36:07;15.60;;;9.97;;
14251;SDS011;7210;51.502;10.722;2022-11-20T02:38:46;13.43;;;9.20;;
14251;SDS011;7210;51.502;10.722;2022-11-20T02:41:17;15.43;;;8.87;;
14251;SDS011;7210;51.502;10.722;2022-11-20T02:43:46;12.17;;;8.43;;
14251;SDS011;7210;51.502;10.722;2022-11-20T02:46:13;13.10;;;8.77;;
14251;SDS011;7210;51.502;10.722;2022-11-20T02:48:58;13.30;;;8.10;;
14251;SDS011;7210;51.502;10.722;2022-11-20T02:51:25;11.40;;;8.80;;
14251;SDS011;7210;51.502;10.722;2022-11-20T02:54:04;11.70;;;8.60;;
14251;SDS011;7210;51.502;10.722;2022-11-20T02:56:47;11.87;;;8.70;;
14251;SDS011;7210;51.502;10.722;2022-11-20T02:59:14;11.20;;;8.10;;
14251;SDS011;7210;51.502;10.722;2022-11-20T03:04:52;15.57;;;9.17;;
14251;SDS011;7210;51.502;10.722;2022-11-20T03:07:19;13.10;;;8.93;;
14251;SDS011;7210;51.502;10.722;2022-11-20T03:09:58;12.67;;;9.07;;
14251;SDS011;7210;51.502;10.722;2022-11-20T03:12:26;14.13;;;9.43;;
14251;SDS011;7210;51.502;10.722;2022-11-20T03:14:53;12.20;;;9.00;;
14251;SDS011;7210;51.502;10.722;2022-11-20T03:17:21;12.33;;;9.20;;
14251;SDS011;7210;51.502;10.722;2022-11-20T03:19:58;13.37;;;9.00;;
14251;SDS011;7210;51.502;10.722;2022-11-20T03:22:25;15.17;;;9.07;;
14251;SDS011;7210;51.502;10.722;2022-11-20T03:28:13;14.13;;;8.83;;
14251;SDS011;7210;51.502;10.722;2022-11-20T03:30:52;15.27;;;8.93;;
14251;SDS011;7210;51.502;10.722;2022-11-20T03:33:19;15.80;;;9.93;;
14251;SDS011;7210;51.502;10.722;2022-11-20T03:38:46;13.23;;;9.20;;
14251;SDS011;7210;51.502;10.722;2022-11-20T03:41:16;12.27;;;8.83;;
14251;SDS011;7210;51.502;10.722;2022-11-20T03:43:48;12.87;;;9.13;;
14251;SDS011;7210;51.502;10.722;2022-11-20T03:46:22;13.37;;;10.07;;
14251;SDS011;7210;51.502;10.722;2022-11-20T03:48:50;13.13;;;8.93;;
14251;SDS011;7210;51.502;10.722;2022-11-20T03:51:34;15.50;;;9.17;;
14251;SDS011;7210;51.502;10.722;2022-11-20T03:54:03;15.90;;;9.20;;
14251;SDS011;7210;51.502;10.722;2022-11-20T03:56:33;13.70;;;9.27;;
14251;SDS011;7210;51.502;10.722;2022-11-20T03:59:17;12.10;;;9.10;;
14251;SDS011;7210;51.502;10.722;2022-11-20T04:01:52;13.53;;;8.73;;
14251;SDS011;7210;51.502;10.722;2022-11-20T04:10:10;13.40;;;9.00;;
14251;SDS011;7210;51.502;10.722;2022-11-20T04:12:52;13.20;;;8.70;;
14251;SDS011;7210;51.502;10.722;2022-11-20T04:15:20;12.13;;;8.83;;
14251;SDS011;7210;51.502;10.722;2022-11-20T04:17:58;13.07;;;8.37;;
14251;SDS011;7210;51.502;10.722;2022-11-20T04:20:25;12.23;;;8.33;;
14251;SDS011;7210;51.502;10.722;2022-11-20T04:22:52;15.80;;;8.50;;
14251;SDS011;7210;51.502;10.722;2022-11-20T04:25:20;13.97;;;8.97;;
14251;SDS011;7210;51.502;10.722;2022-11-20T04:28:04;14.83;;;9.43;;
14251;SDS011;7210;51.502;10.722;2022-11-20T04:30:32;14.43;;;8.60;;
14251;SDS011;7210;51.502;10.722;2022-11-20T04:33:04;11.93;;;7.93;;
14251;SDS011;7210;51.502;10.722;2022-11-20T04:35:34;13.70;;;8.70;;
14251;SDS011;7210;51.502;10.722;2022-11-20T04:40:48;11.30;;;8.57;;
14251;SDS011;7210;51.502;10.722;2022-11-20T04:43:16;14.47;;;9.27;;
14251;SDS011;7210;51.502;10.722;2022-11-20T04:45:53;14.37;;;8.73;;
14251;SDS011;7210;51.502;10.722;2022-11-20T04:48:40;13.77;;;8.90;;
14251;SDS011;7210;51.502;10.722;2022-11-20T04:53:55;13.43;;;8.93;;
14251;SDS011;7210;51.502;10.722;2022-11-20T04:56:22;14.90;;;8.20;;
14251;SDS011;7210;51.502;10.722;2022-11-20T04:58:59;12.43;;;9.10;;
14251;SDS011;7210;51.502;10.722;2022-11-20T05:01:29;13.93;;;8.40;;
14251;SDS011;7210;51.502;10.722;2022-11-20T05:06:58;14.30;;;8.67;;
14251;SDS011;7210;51.502;10.722;2022-11-20T05:09:25;15.70;;;8.60;;
14251;SDS011;7210;51.502;10.722;2022-11-20T05:11:58;14.80;;;9.40;;
14251;SDS011;7210;51.502;10.722;2022-11-20T05:17:26;12.97;;;8.30;;
14251;SDS011;7210;51.502;10.722;2022-11-20T05:20:10;11.63;;;7.97;;
14251;SDS011;7210;51.502;10.722;2022-11-20T05:22:38;12.13;;;8.27;;
14251;SDS011;7210;51.502;10.722;2022-11-20T05:25:05;11.97;;;8.67;;
14251;SDS011;7210;51.502;10.722;2022-11-20T05:27:33;13.27;;;9.10;;
14251;SDS011;7210;51.502;10.722;2022-11-20T05:30:04;12.50;;;8.23;;
14251;SDS011;7210;51.502;10.722;2022-11-20T05:32:35;12.40;;;8.60;;
14251;SDS011;7210;51.502;10.722;2022-11-20T05:35:04;11.70;;;8.57;;
14251;SDS011;7210;51.502;10.722;2022-11-20T05:37:40;16.47;;;9.00;;
14251;SDS011;7210;51.502;10.722;2022-11-20T05:40:10;11.53;;;8.07;;
14251;SDS011;7210;51.502;10.722;2022-11-20T05:42:39;11.13;;;8.40;;
14251;SDS011;7210;51.502;10.722;2022-11-20T05:48:17;15.87;;;9.60;;
14251;SDS011;7210;51.502;10.722;2022-11-20T05:50:45;12.13;;;7.73;;
14251;SDS011;7210;51.502;10.722;2022-11-20T05:53:12;13.07;;;8.93;;
14251;SDS011;7210;51.502;10.722;2022-11-20T05:58:37;11.17;;;7.70;;
14251;SDS011;7210;51.502;10.722;2022-11-20T06:01:06;11.67;;;7.87;;
14251;SDS011;7210;51.502;10.722;2022-11-20T06:03:38;11.77;;;8.37;;
14251;SDS011;7210;51.502;10.722;2022-11-20T06:09:12;13.10;;;8.20;;
14251;SDS011;7210;51.502;10.722;2022-11-20T06:11:40;11.80;;;8.23;;
14251;SDS011;7210;51.502;10.722;2022-11-20T06:14:22;15.63;;;9.27;;
14251;SDS011;7210;51.502;10.722;2022-11-20T06:16:58;12.63;;;8.47;;
14251;SDS011;7210;51.502;10.722;2022-11-20T06:19:27;10.90;;;7.93;;
14251;SDS011;7210;51.502;10.722;2022-11-20T06:24:58;15.10;;;8.60;;
14251;SDS011;7210;51.502;10.722;2022-11-20T06:27:34;12.63;;;7.80;;
14251;SDS011;7210;51.502;10.722;2022-11-20T06:30:10;17.07;;;8.17;;
14251;SDS011;7210;51.502;10.722;2022-11-20T06:32:38;11.60;;;7.77;;
14251;SDS011;7210;51.502;10.722;2022-11-20T06:35:11;11.20;;;8.03;;
14251;SDS011;7210;51.502;10.722;2022-11-20T06:37:39;8.30;;;6.73;;
14251;SDS011;7210;51.502;10.722;2022-11-20T06:40:06;8.33;;;6.80;;
14251;SDS011;7210;51.502;10.722;2022-11-20T06:45:28;9.33;;;6.23;;
14251;SDS011;7210;51.502;10.722;2022-11-20T06:47:56;11.37;;;6.97;;
14251;SDS011;7210;51.502;10.722;2022-11-20T06:50:25;9.90;;;6.77;;
14251;SDS011;7210;51.502;10.722;2022-11-20T06:52:52;11.03;;;6.70;;
14251;SDS011;7210;51.502;10.722;2022-11-20T06:55:34;11.77;;;7.20;;
14251;SDS011;7210;51.502;10.722;2022-11-20T06:58:01;9.90;;;6.63;;
14251;SDS011;7210;51.502;10.722;2022-11-20T07:06:47;9.07;;;7.13;;
14251;SDS011;7210;51.502;10.722;2022-11-20T07:09:16;10.37;;;6.70;;
14251;SDS011;7210;51.502;10.722;2022-11-20T07:11:58;11.43;;;7.33;;
14251;SDS011;7210;51.502;10.722;2022-11-20T07:14:34;10.27;;;6.80;;
14251;SDS011;7210;51.502;10.722;2022-11-20T07:17:01;13.50;;;7.40;;
14251;SDS011;7210;51.502;10.722;2022-11-20T07:25:22;10.63;;;7.10;;
14251;SDS011;7210;51.502;10.722;2022-11-20T07:27:49;11.03;;;7.00;;
14251;SDS011;7210;51.502;10.722;2022-11-20T07:30:17;9.20;;;6.37;;
14251;SDS011;7210;51.502;10.722;2022-11-20T07:32:46;11.80;;;6.30;;
14251;SDS011;7210;51.502;10.722;2022-11-20T07:35:22;9.47;;;6.50;;
14251;SDS011;7210;51.502;10.722;2022-11-20T07:40:38;12.63;;;6.90;;
14251;SDS011;7210;51.502;10.722;2022-11-20T07:43:05;9.37;;;6.70;;
14251;SDS011;7210;51.502;10.722;2022-11-20T07:45:32;12.70;;;7.80;;
14251;SDS011;7210;51.502;10.722;2022-11-20T07:48:10;11.93;;;7.10;;
14251;SDS011;7210;51.502;10.722;2022-11-20T07:50:46;14.03;;;7.37;;
14251;SDS011;7210;51.502;10.722;2022-11-20T07:53:23;12.83;;;7.07;;
14251;SDS011;7210;51.502;10.722;2022-11-20T07:59:12;10.83;;;6.67;;
14251;SDS011;7210;51.502;10.722;2022-11-20T08:01:40;12.20;;;7.73;;
14251;SDS011;7210;51.502;10.722;2022-11-20T08:04:10;12.47;;;8.60;;
14251;SDS011;7210;51.502;10.722;2022-11-20T08:09:29;13.20;;;8.50;;
14251;SDS011;7210;51.502;10.722;2022-11-20T08:11:57;15.10;;;9.07;;
14251;SDS011;7210;51.502;10.722;2022-11-20T08:14:52;13.40;;;9.13;;
14251;SDS011;7210;51.502;10.722;2022-11-20T08:17:20;11.80;;;8.30;;
14251;SDS011;7210;51.502;10.722;2022-11-20T08:19:52;12.27;;;8.33;;
14251;SDS011;7210;51.502;10.722;2022-11-20T08:22:22;12.43;;;8.10;;
14251;SDS011;7210;51.502;10.722;2022-11-20T08:27:40;16.30;;;8.00;;
14251;SDS011;7210;51.502;10.722;2022-11-20T08:30:07;11.77;;;7.53;;
14251;SDS011;7210;51.502;10.722;2022-11-20T08:32:36;11.90;;;7.70;;
14251;SDS011;7210;51.502;10.722;2022-11-20T08:35:04;13.53;;;8.60;;
14251;SDS011;7210;51.502;10.722;2022-11-20T08:37:32;11.47;;;8.00;;
14251;SDS011;7210;51.502;10.722;2022-11-20T08:39:59;12.93;;;8.33;;
14251;SDS011;7210;51.502;10.722;2022-11-20T08:42:28;10.67;;;7.43;;
14251;SDS011;7210;51.502;10.722;2022-11-20T08:44:55;11.33;;;7.90;;
14251;SDS011;7210;51.502;10.722;2022-11-20T08:47:22;11.03;;;8.03;;
14251;SDS011;7210;51.502;10.722;2022-11-20T08:49:52;10.73;;;7.17;;
14251;SDS011;7210;51.502;10.722;2022-11-20T08:55:22;10.97;;;8.00;;
14251;SDS011;7210;51.502;10.722;2022-11-20T08:57:50;13.60;;;7.90;;
14251;SDS011;7210;51.502;10.722;2022-11-20T09:00:23;8.63;;;6.97;;
14251;SDS011;7210;51.502;10.722;2022-11-20T09:05:46;9.57;;;7.07;;
14251;SDS011;7210;51.502;10.722;2022-11-20T09:08:13;11.60;;;7.70;;
14251;SDS011;7210;51.502;10.722;2022-11-20T09:10:40;9.10;;;7.13;;
14251;SDS011;7210;51.502;10.722;2022-11-20T09:13:11;9.33;;;7.20;;
14251;SDS011;7210;51.502;10.722;2022-11-20T09:15:46;11.13;;;7.80;;
14251;SDS011;7210;51.502;10.722;2022-11-20T09:18:13;12.53;;;8.53;;
14251;SDS011;7210;51.502;10.722;2022-11-20T09:20:46;13.53;;;8.93;;
14251;SDS011;7210;51.502;10.722;2022-11-20T09:23:22;13.63;;;9.30;;
14251;SDS011;7210;51.502;10.722;2022-11-20T09:25:52;13.03;;;8.83;;
14251;SDS011;7210;51.502;10.722;2022-11-20T09:28:22;12.63;;;8.87;;
14251;SDS011;7210;51.502;10.722;2022-11-20T09:30:49;15.57;;;9.63;;
14251;SDS011;7210;51.502;10.722;2022-11-20T09:33:17;13.13;;;9.10;;
14251;SDS011;7210;51.502;10.722;2022-11-20T09:35:46;15.00;;;10.43;;
14251;SDS011;7210;51.502;10.722;2022-11-20T09:38:13;15.83;;;11.17;;
14251;SDS011;7210;51.502;10.722;2022-11-20T09:40:43;16.10;;;10.33;;
14251;SDS011;7210;51.502;10.722;2022-11-20T09:43:23;14.03;;;9.63;;
14251;SDS011;7210;51.502;10.722;2022-11-20T09:46:05;16.17;;;10.13;;
14251;SDS011;7210;51.502;10.722;2022-11-20T09:48:48;15.73;;;10.73;;
14251;SDS011;7210;51.502;10.722;2022-11-20T09:51:36;15.03;;;10.03;;
14251;SDS011;7210;51.502;10.722;2022-11-20T09:54:16;19.43;;;10.73;;
14251;SDS011;7210;51.502;10.722;2022-11-20T09:56:47;21.30;;;11.90;;
14251;SDS011;7210;51.502;10.722;2022-11-20T09:59:32;15.53;;;10.67;;
14251;SDS011;7210;51.502;10.722;2022-11-20T10:02:11;14.73;;;10.63;;
14251;SDS011;7210;51.502;10.722;2022-11-20T10:04:52;18.37;;;11.57;;
14251;SDS011;7210;51.502;10.722;2022-11-20T10:07:29;16.53;;;11.83;;
14251;SDS011;7210;51.502;10.722;2022-11-20T10:10:13;18.47;;;12.47;;
14251;SDS011;7210;51.502;10.722;2022-11-20T10:12:49;18.73;;;12.60;;
14251;SDS011;7210;51.502;10.722;2022-11-20T10:15:42;18.83;;;12.27;;
14251;SDS011;7210;51.502;10.722;2022-11-20T10:18:31;21.17;;;13.20;;
14251;SDS011;7210;51.502;10.722;2022-11-20T10:21:35;19.80;;;13.30;;
14251;SDS011;7210;51.502;10.722;2022-11-20T10:24:28;17.23;;;11.83;;
14251;SDS011;7210;51.502;10.722;2022-11-20T10:27:19;19.43;;;13.03;;
14251;SDS011;7210;51.502;10.722;2022-11-20T10:30:22;17.27;;;11.83;;
14251;SDS011;7210;51.502;10.722;2022-11-20T10:32:54;20.27;;;12.63;;
14251;SDS011;7210;51.502;10.722;2022-11-20T10:35:34;17.40;;;12.10;;
14251;SDS011;7210;51.502;10.722;2022-11-20T10:41:06;18.70;;;13.17;;
14251;SDS011;7210;51.502;10.722;2022-11-20T10:43:52;17.83;;;12.23;;
14251;SDS011;7210;51.502;10.722;2022-11-20T10:49:23;17.47;;;12.43;;
14251;SDS011;7210;51.502;10.722;2022-11-20T10:51:56;18.33;;;12.67;;
14251;SDS011;7210;51.502;10.722;2022-11-20T10:54:39;18.37;;;12.83;;
14251;SDS011;7210;51.502;10.722;2022-11-20T10:57:31;16.47;;;11.97;;
14251;SDS011;7210;51.502;10.722;2022-11-20T11:00:22;16.30;;;11.90;;
14251;SDS011;7210;51.502;10.722;2022-11-20T11:02:50;16.60;;;12.07;;
14251;SDS011;7210;51.502;10.722;2022-11-20T11:05:27;18.33;;;11.60;;
14251;SDS011;7210;51.502;10.722;2022-11-20T11:08:16;17.07;;;11.27;;
14251;SDS011;7210;51.502;10.722;2022-11-20T11:10:46;14.90;;;11.00;;
14251;SDS011;7210;51.502;10.722;2022-11-20T11:13:22;17.83;;;11.93;;
14251;SDS011;7210;51.502;10.722;2022-11-20T11:15:58;16.33;;;12.17;;
14251;SDS011;7210;51.502;10.722;2022-11-20T11:18:29;20.07;;;12.33;;
14251;SDS011;7210;51.502;10.722;2022-11-20T11:21:05;17.00;;;11.53;;
14251;SDS011;7210;51.502;10.722;2022-11-20T11:33:10;16.30;;;10.47;;
14251;SDS011;7210;51.502;10.722;2022-11-20T11:35:46;17.67;;;10.77;;
14251;SDS011;7210;51.502;10.722;2022-11-20T11:38:28;21.90;;;10.97;;
14251;SDS011;7210;51.502;10.722;2022-11-20T11:41:00;17.63;;;12.23;;
14251;SDS011;7210;51.502;10.722;2022-11-20T11:43:30;15.77;;;11.23;;
14251;SDS011;7210;51.502;10.722;2022-11-20T11:46:26;15.33;;;10.67;;
14251;SDS011;7210;51.502;10.722;2022-11-20T11:48:58;16.70;;;11.23;;
14251;SDS011;7210;51.502;10.722;2022-11-20T11:51:31;16.13;;;10.87;;
14251;SDS011;7210;51.502;10.722;2022-11-20T11:54:10;24.57;;;17.43;;
14251;SDS011;7210;51.502;10.722;2022-11-20T11:56:52;23.20;;;16.43;;
14251;SDS011;7210;51.502;10.722;2022-11-20T11:59:22;16.07;;;11.07;;
14251;SDS011;7210;51.502;10.722;2022-11-20T12:02:09;15.87;;;10.80;;
14251;SDS011;7210;51.502;10.722;2022-11-20T12:04:56;24.60;;;15.37;;
14251;SDS011;7210;51.502;10.722;2022-11-20T12:07:32;51.00;;;28.07;;
14251;SDS011;7210;51.502;10.722;2022-11-20T12:10:14;16.07;;;10.00;;
14251;SDS011;7210;51.502;10.722;2022-11-20T12:12:48;14.53;;;9.67;;
14251;SDS011;7210;51.502;10.722;2022-11-20T12:15:29;17.20;;;10.97;;
14251;SDS011;7210;51.502;10.722;2022-11-20T12:18:00;14.73;;;10.10;;
14251;SDS011;7210;51.502;10.722;2022-11-20T12:20:29;12.80;;;9.63;;
14251;SDS011;7210;51.502;10.722;2022-11-20T12:23:08;14.07;;;10.43;;
14251;SDS011;7210;51.502;10.722;2022-11-20T12:25:49;13.07;;;9.63;;
14251;SDS011;7210;51.502;10.722;2022-11-20T12:28:37;15.27;;;10.83;;
14251;SDS011;7210;51.502;10.722;2022-11-20T12:31:23;13.17;;;9.70;;
14251;SDS011;7210;51.502;10.722;2022-11-20T12:34:40;16.27;;;10.03;;
14251;SDS011;7210;51.502;10.722;2022-11-20T12:37:23;13.57;;;9.67;;
14251;SDS011;7210;51.502;10.722;2022-11-20T12:40:12;13.40;;;10.13;;
14251;SDS011;7210;51.502;10.722;2022-11-20T12:43:03;12.90;;;9.87;;
14251;SDS011;7210;51.502;10.722;2022-11-20T12:46:08;15.83;;;10.23;;
14251;SDS011;7210;51.502;10.722;2022-11-20T12:48:59;12.83;;;9.93;;
14251;SDS011;7210;51.502;10.722;2022-11-20T12:51:48;15.77;;;9.67;;
14251;SDS011;7210;51.502;10.722;2022-11-20T12:57:42;13.97;;;10.17;;
14251;SDS011;7210;51.502;10.722;2022-11-20T13:00:21;13.43;;;9.93;;
14251;SDS011;7210;51.502;10.722;2022-11-20T13:06:13;14.90;;;9.90;;
14251;SDS011;7210;51.502;10.722;2022-11-20T13:08:47;13.90;;;10.10;;
14251;SDS011;7210;51.502;10.722;2022-11-20T13:11:23;13.20;;;9.47;;
14251;SDS011;7210;51.502;10.722;2022-11-20T13:14:03;16.37;;;10.17;;
14251;SDS011;7210;51.502;10.722;2022-11-20T13:16:54;13.03;;;10.07;;
14251;SDS011;7210;51.502;10.722;2022-11-20T13:19:28;16.17;;;10.67;;
14251;SDS011;7210;51.502;10.722;2022-11-20T13:21:58;18.87;;;12.47;;
14251;SDS011;7210;51.502;10.722;2022-11-20T13:24:26;15.10;;;10.80;;
14251;SDS011;7210;51.502;10.722;2022-11-20T13:27:00;17.43;;;12.53;;
14251;SDS011;7210;51.502;10.722;2022-11-20T13:29:34;16.80;;;11.30;;
14251;SDS011;7210;51.502;10.722;2022-11-20T13:32:23;14.87;;;10.43;;
14251;SDS011;7210;51.502;10.722;2022-11-20T13:34:51;14.07;;;10.13;;
14251;SDS011;7210;51.502;10.722;2022-11-20T13:37:24;17.37;;;10.97;;
14251;SDS011;7210;51.502;10.722;2022-11-20T13:40:11;14.40;;;10.60;;
14251;SDS011;7210;51.502;10.722;2022-11-20T13:42:51;15.50;;;10.63;;
14251;SDS011;7210;51.502;10.722;2022-11-20T13:45:29;14.20;;;9.97;;
14251;SDS011;7210;51.502;10.722;2022-11-20T13:48:01;15.03;;;10.30;;
14251;SDS011;7210;51.502;10.722;2022-11-20T13:50:39;16.83;;;11.40;;
14251;SDS011;7210;51.502;10.722;2022-11-20T13:53:21;14.53;;;10.67;;
14251;SDS011;7210;51.502;10.722;2022-11-20T13:56:14;14.63;;;10.27;;
14251;SDS011;7210;51.502;10.722;2022-11-20T13:58:53;14.47;;;10.67;;
14251;SDS011;7210;51.502;10.722;2022-11-20T14:01:31;14.07;;;10.30;;
14251;SDS011;7210;51.502;10.722;2022-11-20T14:04:05;14.30;;;10.20;;
14251;SDS011;7210;51.502;10.722;2022-11-20T14:06:46;15.77;;;10.87;;
14251;SDS011;7210;51.502;10.722;2022-11-20T14:09:24;13.37;;;9.70;;
14251;SDS011;7210;51.502;10.722;2022-11-20T14:11:58;15.57;;;10.57;;
14251;SDS011;7210;51.502;10.722;2022-11-20T14:14:26;14.73;;;9.80;;
14251;SDS011;7210;51.502;10.722;2022-11-20T14:17:04;12.63;;;9.63;;
14251;SDS011;7210;51.502;10.722;2022-11-20T14:19:41;14.97;;;9.87;;
14251;SDS011;7210;51.502;10.722;2022-11-20T14:22:17;16.13;;;10.93;;
14251;SDS011;7210;51.502;10.722;2022-11-20T14:24:48;15.80;;;11.63;;
14251;SDS011;7210;51.502;10.722;2022-11-20T14:27:34;16.23;;;10.77;;
14251;SDS011;7210;51.502;10.722;2022-11-20T14:30:22;14.17;;;10.50;;
14251;SDS011;7210;51.502;10.722;2022-11-20T14:33:10;15.83;;;10.20;;
14251;SDS011;7210;51.502;10.722;2022-11-20T14:35:43;12.50;;;9.40;;
14251;SDS011;7210;51.502;10.722;2022-11-20T14:38:13;13.13;;;9.57;;
14251;SDS011;7210;51.502;10.722;2022-11-20T14:40:46;14.07;;;10.63;;
14251;SDS011;7210;51.502;10.722;2022-11-20T14:43:22;13.87;;;10.00;;
14251;SDS011;7210;51.502;10.722;2022-11-20T14:45:58;14.03;;;9.90;;
14251;SDS011;7210;51.502;10.722;2022-11-20T14:48:40;15.40;;;10.30;;
14251;SDS011;7210;51.502;10.722;2022-11-20T14:54:10;14.77;;;9.93;;
14251;SDS011;7210;51.502;10.722;2022-11-20T14:56:40;15.80;;;9.90;;
14251;SDS011;7210;51.502;10.722;2022-11-20T14:59:21;14.53;;;9.33;;
14251;SDS011;7210;51.502;10.722;2022-11-20T15:01:55;21.23;;;10.70;;
14251;SDS011;7210;51.502;10.722;2022-11-20T15:04:25;14.17;;;10.00;;
14251;SDS011;7210;51.502;10.722;2022-11-20T15:06:55;13.77;;;9.70;;
14251;SDS011;7210;51.502;10.722;2022-11-20T15:09:25;13.10;;;9.80;;
14251;SDS011;7210;51.502;10.722;2022-11-20T15:11:53;13.00;;;9.47;;
14251;SDS011;7210;51.502;10.722;2022-11-20T15:14:24;13.13;;;9.67;;
14251;SDS011;7210;51.502;10.722;2022-11-20T15:16:54;14.87;;;10.77;;
14251;SDS011;7210;51.502;10.722;2022-11-20T15:19:23;14.53;;;10.00;;
14251;SDS011;7210;51.502;10.722;2022-11-20T15:21:52;16.07;;;11.50;;
14251;SDS011;7210;51.502;10.722;2022-11-20T15:24:21;17.50;;;12.03;;
14251;SDS011;7210;51.502;10.722;2022-11-20T15:26:48;17.47;;;11.57;;
14251;SDS011;7210;51.502;10.722;2022-11-20T15:29:16;13.80;;;10.57;;
14251;SDS011;7210;51.502;10.722;2022-11-20T15:31:46;14.17;;;10.33;;
14251;SDS011;7210;51.502;10.722;2022-11-20T15:34:16;13.50;;;9.53;;
14251;SDS011;7210;51.502;10.722;2022-11-20T15:36:43;13.93;;;9.03;;
14251;SDS011;7210;51.502;10.722;2022-11-20T15:39:12;14.87;;;9.50;;
14251;SDS011;7210;51.502;10.722;2022-11-20T15:41:40;12.43;;;8.67;;
14251;SDS011;7210;51.502;10.722;2022-11-20T15:44:07;15.57;;;10.00;;
14251;SDS011;7210;51.502;10.722;2022-11-20T15:46:36;13.47;;;9.83;;
14251;SDS011;7210;51.502;10.722;2022-11-20T15:49:09;14.07;;;9.90;;
14251;SDS011;7210;51.502;10.722;2022-11-20T15:51:40;17.17;;;10.77;;
14251;SDS011;7210;51.502;10.722;2022-11-20T15:54:17;16.73;;;11.17;;
14251;SDS011;7210;51.502;10.722;2022-11-20T15:56:47;17.00;;;11.87;;
14251;SDS011;7210;51.502;10.722;2022-11-20T15:59:17;18.87;;;11.80;;
14251;SDS011;7210;51.502;10.722;2022-11-20T16:01:52;17.53;;;11.20;;
14251;SDS011;7210;51.502;10.722;2022-11-20T16:04:19;23.50;;;13.60;;
14251;SDS011;7210;51.502;10.722;2022-11-20T16:06:52;38.47;;;23.10;;
14251;SDS011;7210;51.502;10.722;2022-11-20T16:09:20;32.33;;;19.57;;
14251;SDS011;7210;51.502;10.722;2022-11-20T16:11:47;28.83;;;19.00;;
14251;SDS011;7210;51.502;10.722;2022-11-20T16:14:15;27.93;;;18.03;;
14251;SDS011;7210;51.502;10.722;2022-11-20T16:17:04;27.63;;;17.57;;
14251;SDS011;7210;51.502;10.722;2022-11-20T16:19:31;27.33;;;15.87;;
14251;SDS011;7210;51.502;10.722;2022-11-20T16:22:04;24.60;;;16.07;;
14251;SDS011;7210;51.502;10.722;2022-11-20T16:24:32;23.53;;;15.73;;
14251;SDS011;7210;51.502;10.722;2022-11-20T16:27:04;25.90;;;16.57;;
14251;SDS011;7210;51.502;10.722;2022-11-20T16:29:32;21.10;;;14.27;;
14251;SDS011;7210;51.502;10.722;2022-11-20T16:31:59;22.70;;;14.40;;
14251;SDS011;7210;51.502;10.722;2022-11-20T16:34:26;23.60;;;16.00;;
14251;SDS011;7210;51.502;10.722;2022-11-20T16:36:54;22.63;;;15.53;;
14251;SDS011;7210;51.502;10.722;2022-11-20T16:39:22;20.43;;;12.23;;
14251;SDS011;7210;51.502;10.722;2022-11-20T16:41:56;22.93;;;12.47;;
14251;SDS011;7210;51.502;10.722;2022-11-20T16:44:28;16.90;;;11.77;;
14251;SDS011;7210;51.502;10.722;2022-11-20T16:46:55;17.53;;;11.43;;
14251;SDS011;7210;51.502;10.722;2022-11-20T16:49:22;20.97;;;13.23;;
14251;SDS011;7210;51.502;10.722;2022-11-20T16:51:50;32.37;;;19.23;;
14251;SDS011;7210;51.502;10.722;2022-11-20T16:54:17;34.23;;;21.90;;
14251;SDS011;7210;51.502;10.722;2022-11-20T16:56:46;31.83;;;19.83;;